Time;durP1;ratioP1;P1;durP2;ratioP2;P2;SDS_P1;SDS_P2;PMS_P1;PMS_P2;Temp;Humidity;BMP_temperature;BMP_pressure;BME280_temperature;BME280_humidity;BME280_pressure;Samples;Min_cycle;Max_cycle;Signal;HPM_P1;HPM_P2
2022/06/02 00:01:27;;;;;;;39.80;35.80;;;;;;;17.37;100.00;101084.53;5067891;28;20413;-84
2022/06/02 00:03:59;;;;;;;38.10;34.50;;;;;;;17.46;100.00;101083.09;5064423;28;20045;-83
2022/06/02 00:06:40;;;;;;;40.38;36.67;;;;;;;17.49;100.00;101087.13;5067823;28;20056;-80
2022/06/02 00:09:18;;;;;;;38.95;35.28;;;;;;;17.44;100.00;101089.75;5067822;28;20049;-80
2022/06/02 00:12:01;;;;;;;36.05;32.50;;;;;;;17.39;100.00;101077.84;5059880;28;20106;-81
2022/06/02 00:14:39;;;;;;;37.60;34.00;;;;;;;17.29;100.00;101085.72;5070026;28;20124;-81
2022/06/02 00:17:14;;;;;;;39.50;36.00;;;;;;;17.38;100.00;101078.91;5066484;28;20040;-83
2022/06/02 00:19:47;;;;;;;37.63;34.30;;;;;;;17.00;100.00;101078.75;5062049;28;20053;-83
2022/06/02 00:22:23;;;;;;;38.97;34.28;;;;;;;16.41;100.00;101077.03;5072078;28;20114;-80
2022/06/02 00:25:00;;;;;;;40.78;36.70;;;;;;;16.42;100.00;101080.50;5069804;28;20048;-82
2022/06/02 00:27:36;;;;;;;39.53;35.45;;;;;;;16.45;100.00;101077.38;5063634;28;20102;-80
2022/06/02 00:30:09;;;;;;;41.47;34.45;;;;;;;16.58;100.00;101078.97;5065863;28;20056;-82
2022/06/02 00:32:44;;;;;;;40.47;36.88;;;;;;;16.61;100.00;101083.84;5065557;28;20110;-81
2022/06/02 00:35:22;;;;;;;39.80;35.83;;;;;;;16.57;100.00;101088.06;5064472;28;20044;-84
2022/06/02 00:37:56;;;;;;;38.47;34.80;;;;;;;16.51;100.00;101080.97;5065285;28;20118;-81
2022/06/02 00:40:27;;;;;;;40.40;34.30;;;;;;;16.48;100.00;101080.38;5070155;28;20052;-83
2022/06/02 00:43:06;;;;;;;38.00;34.35;;;;;;;16.63;100.00;101073.72;5059296;28;20041;-81
2022/06/02 00:45:33;;;;;;;39.10;35.42;;;;;;;17.09;100.00;101072.75;5058651;28;20049;-81
2022/06/02 00:48:12;;;;;;;38.13;34.33;;;;;;;17.00;100.00;101076.06;5065453;28;20538;-83
2022/06/02 00:50:50;;;;;;;37.70;34.10;;;;;;;17.22;100.00;101074.34;5065568;28;20045;-81
2022/06/02 00:53:32;;;;;;;38.53;35.13;;;;;;;17.29;100.00;101074.19;5067827;28;20122;-81
2022/06/02 00:59:20;;;;;;;37.90;34.35;;;;;;;16.83;100.00;101074.16;5064398;28;20187;-81
2022/06/02 01:01:47;;;;;;;38.05;34.58;;;;;;;16.60;100.00;101074.19;5066264;28;20056;-82
2022/06/02 01:04:17;;;;;;;38.28;34.42;;;;;;;17.03;100.00;101071.03;5063542;28;20045;-83
2022/06/02 01:06:52;;;;;;;40.70;36.78;;;;;;;17.08;100.00;101064.94;5060879;28;20049;-80
2022/06/02 01:09:44;;;;;;;40.55;36.65;;;;;;;16.85;100.00;101073.91;5069163;28;20037;-81
2022/06/02 01:12:24;;;;;;;37.47;33.67;;;;;;;16.95;100.00;101079.47;5063551;28;20106;-80
2022/06/02 01:15:06;;;;;;;36.10;32.63;;;;;;;16.99;100.00;101067.19;5068576;28;20045;-81
2022/06/02 01:17:43;;;;;;;35.72;32.78;;;;;;;16.94;100.00;101070.63;5062131;28;20117;-80
2022/06/02 01:20:39;;;;;;;36.20;32.90;;;;;;;17.09;100.00;101059.31;5064915;28;20048;-83
2022/06/02 01:23:48;;;;;;;35.35;31.92;;;;;;;16.52;100.00;101061.97;5072562;28;20447;-83
2022/06/02 01:26:36;;;;;;;39.38;35.80;;;;;;;16.76;100.00;101061.91;5062637;28;20053;-83
2022/06/02 01:29:22;;;;;;;38.38;34.40;;;;;;;17.20;100.00;101056.84;5070600;28;20117;-82
2022/06/02 01:31:57;;;;;;;39.00;35.30;;;;;;;17.09;100.00;101050.47;5063525;28;20184;-81
2022/06/02 01:34:44;;;;;;;40.55;36.88;;;;;;;17.15;100.00;101058.38;5066373;28;20049;-82
2022/06/02 01:37:18;;;;;;;42.05;38.17;;;;;;;16.96;100.00;101054.28;5067876;28;20045;-82
2022/06/02 01:40:02;;;;;;;41.05;36.83;;;;;;;16.83;100.00;101052.69;5065646;28;20045;-80
2022/06/02 01:42:41;;;;;;;41.67;38.08;;;;;;;16.80;100.00;101057.72;5064023;28;20117;-82
2022/06/02 01:45:17;;;;;;;42.15;38.53;;;;;;;16.65;100.00;101060.88;5067596;28;20045;-83
2022/06/02 01:47:50;;;;;;;42.22;38.42;;;;;;;16.50;100.00;101056.03;5065856;28;20041;-81
2022/06/02 01:50:30;;;;;;;47.63;36.97;;;;;;;15.84;100.00;101059.94;5060998;28;20122;-82
2022/06/02 01:53:08;;;;;;;40.75;37.05;;;;;;;16.29;100.00;101057.47;5067273;28;20056;-81
2022/06/02 01:56:12;;;;;;;39.70;35.83;;;;;;;16.51;100.00;101063.00;5066105;28;20056;-81
2022/06/02 01:58:56;;;;;;;38.65;35.03;;;;;;;16.53;100.00;101068.97;5023365;28;20056;-80
2022/06/02 02:01:33;;;;;;;39.83;36.13;;;;;;;16.54;100.00;101067.09;5182568;22;20149;-83
2022/06/02 02:04:15;;;;;;;39.63;35.92;;;;;;;15.95;100.00;101067.16;5081164;28;20434;-83
2022/06/02 02:06:48;;;;;;;38.78;34.85;;;;;;;15.76;100.00;101066.44;5084148;28;20102;-80
2022/06/02 02:09:23;;;;;;;39.08;35.42;;;;;;;15.66;100.00;101069.66;5087576;28;20036;-80
2022/06/02 02:11:52;;;;;;;39.60;35.85;;;;;;;15.53;100.00;101061.84;5082134;28;20127;-82
2022/06/02 02:14:57;;;;;;;41.40;37.40;;;;;;;16.15;100.00;101075.63;5087676;28;20135;-81
2022/06/02 02:17:54;;;;;;;41.08;37.35;;;;;;;16.25;100.00;101078.56;5072042;28;20074;-84
2022/06/02 02:20:29;;;;;;;39.10;35.70;;;;;;;16.32;100.00;101091.03;5079760;28;20453;-85
2022/06/02 02:23:04;;;;;;;35.78;32.75;;;;;;;16.21;100.00;101074.72;5085594;28;20408;-82
2022/06/02 02:25:41;;;;;;;38.92;35.00;;;;;;;15.49;100.00;101079.41;5086185;28;20093;-80
2022/06/02 02:28:17;;;;;;;37.90;34.55;;;;;;;15.37;100.00;101078.56;5084384;28;20489;-81
2022/06/02 02:30:57;;;;;;;46.90;42.83;;;;;;;15.31;100.00;101083.78;5080470;28;20466;-81
2022/06/02 02:33:33;;;;;;;41.55;37.75;;;;;;;15.33;100.00;101081.69;5086122;28;20145;-81
2022/06/02 02:36:10;;;;;;;42.00;38.03;;;;;;;15.55;100.00;101078.47;5084150;28;20537;-79
2022/06/02 02:38:44;;;;;;;42.80;38.90;;;;;;;16.15;100.00;101077.50;5083779;28;20276;-80
2022/06/02 02:41:18;;;;;;;37.20;33.75;;;;;;;15.98;100.00;101074.75;5081676;28;20135;-83
2022/06/02 02:43:53;;;;;;;37.75;34.55;;;;;;;16.11;100.00;101076.34;5091102;28;20044;-81
2022/06/02 02:46:23;;;;;;;36.22;32.97;;;;;;;15.88;100.00;101077.16;5089055;28;20057;-81
2022/06/02 02:48:57;;;;;;;36.80;33.42;;;;;;;15.80;100.00;101081.00;5086844;28;20134;-81
2022/06/02 02:51:37;;;;;;;37.03;33.60;;;;;;;15.87;100.00;101084.38;5091493;28;20048;-83
2022/06/02 02:54:12;;;;;;;37.20;34.10;;;;;;;16.12;100.00;101070.75;5091834;28;20048;-83
2022/06/02 02:56:54;;;;;;;33.15;30.10;;;;;;;15.78;100.00;101080.41;5088163;28;20105;-80
2022/06/02 02:59:29;;;;;;;31.80;28.58;;;;;;;15.86;100.00;101084.63;5091989;28;20048;-82
2022/06/02 03:02:14;;;;;;;32.83;29.92;;;;;;;16.03;100.00;101083.69;5087796;28;20208;-81
2022/06/02 03:04:51;;;;;;;35.13;31.65;;;;;;;16.03;100.00;101086.34;5082676;28;20048;-79
2022/06/02 03:07:20;;;;;;;35.97;32.70;;;;;;;15.42;100.00;101084.84;5089027;28;20048;-82
2022/06/02 03:10:02;;;;;;;42.83;38.67;;;;;;;15.45;100.00;101083.59;5086123;28;20048;-82
2022/06/02 03:12:46;;;;;;;41.70;37.65;;;;;;;15.36;100.00;101083.09;5088222;28;20058;-82
2022/06/02 03:15:22;;;;;;;43.50;39.70;;;;;;;15.99;100.00;101093.25;5085541;28;20076;-81
2022/06/02 03:18:05;;;;;;;43.53;39.50;;;;;;;16.03;100.00;101091.72;5087602;28;20085;-81
2022/06/02 03:20:40;;;;;;;;;;;;;;;16.35;100.00;101093.25;5087439;28;20048;-80
2022/06/02 03:23:25;;;;;;;40.90;36.92;;;;;;;16.64;100.00;101083.38;5094021;28;19988;-84
2022/06/02 03:25:57;;;;;;;44.08;40.40;;;;;;;16.72;100.00;101085.69;5085369;28;20051;-79
2022/06/02 03:28:42;;;;;;;43.33;39.33;;;;;;;16.78;100.00;101084.78;5091329;28;20109;-83
2022/06/02 03:31:16;;;;;;;41.50;38.20;;;;;;;16.82;100.00;101090.47;5088390;28;20110;-80
2022/06/02 03:34:00;;;;;;;43.42;39.20;;;;;;;16.93;100.00;101092.31;5087744;28;20120;-81
2022/06/02 03:36:51;;;;;;;39.25;36.05;;;;;;;17.05;100.00;101086.91;5082873;28;20048;-81
2022/06/02 03:39:30;;;;;;;39.45;36.00;;;;;;;17.35;100.00;101097.38;5086929;28;20048;-83
2022/06/02 03:42:11;;;;;;;39.95;36.28;;;;;;;17.13;100.00;101102.63;5077394;28;20053;-80
2022/06/02 03:44:56;;;;;;;38.45;34.97;;;;;;;17.47;100.00;101097.31;5087794;28;20469;-82
2022/06/02 03:47:42;;;;;;;36.92;33.85;;;;;;;17.30;100.00;101100.78;5088383;28;20465;-83
2022/06/02 03:50:28;;;;;;;37.65;34.55;;;;;;;17.42;100.00;101097.22;5086915;28;20049;-80
2022/06/02 03:53:16;;;;;;;38.65;34.97;;;;;;;17.62;100.00;101100.25;5086867;28;20110;-81
2022/06/02 03:56:04;;;;;;;40.75;37.45;;;;;;;17.83;100.00;101102.25;5090986;28;20050;-80
2022/06/02 03:58:44;;;;;;;40.88;37.13;;;;;;;17.88;100.00;101106.88;5086146;28;20400;-83
2022/06/02 04:01:18;;;;;;;39.25;35.75;;;;;;;17.84;100.00;101103.88;5086568;28;20048;-83
2022/06/02 04:04:00;;;;;;;38.50;35.60;;;;;;;17.92;100.00;101097.28;5089191;28;20113;-80
2022/06/02 04:06:40;;;;;;;39.75;36.40;;;;;;;18.06;100.00;101101.28;5087627;28;20066;-82
2022/06/02 04:09:32;;;;;;;41.50;38.15;;;;;;;18.05;100.00;101104.19;5088010;28;20048;-83
2022/06/02 04:15:04;;;;;;;54.60;48.78;;;;;;;18.56;100.00;101112.97;5087485;28;20074;-83
2022/06/02 04:17:37;;;;;;;53.65;47.88;;;;;;;20.11;100.00;101098.88;5094289;28;20086;-83
2022/06/02 04:20:38;;;;;;;43.13;39.45;;;;;;;18.72;100.00;101112.09;5096030;28;20048;-86
2022/06/02 04:23:23;;;;;;;40.00;36.88;;;;;;;18.55;100.00;101114.03;5079514;28;20114;-87
2022/06/02 04:26:02;;;;;;;40.42;37.05;;;;;;;18.50;100.00;101114.78;5094429;28;20123;-88
2022/06/02 04:28:44;;;;;;;38.13;35.20;;;;;;;18.73;100.00;101119.13;5084824;28;20072;-87
2022/06/02 04:31:24;;;;;;;39.58;36.22;;;;;;;18.85;100.00;101129.78;5088694;28;20055;-87
2022/06/02 04:33:57;;;;;;;38.42;35.08;;;;;;;18.94;100.00;101108.59;5096804;28;20058;-87
2022/06/02 04:36:34;;;;;;;38.08;34.65;;;;;;;18.97;100.00;101119.69;5087519;28;20048;-86
2022/06/02 04:39:10;;;;;;;37.55;34.08;;;;;;;19.26;100.00;101122.13;5084970;28;20533;-87
2022/06/02 04:41:49;;;;;;;37.35;34.35;;;;;;;19.43;100.00;101109.38;5087502;28;20079;-87
2022/06/02 04:44:32;;;;;;;36.38;33.55;;;;;;;19.53;100.00;101116.75;5097969;28;20148;-88
2022/06/02 04:47:22;;;;;;;35.63;33.05;;;;;;;19.58;100.00;101111.41;5089438;28;20074;-87
2022/06/02 04:50:07;;;;;;;38.65;35.47;;;;;;;19.68;100.00;101118.78;5097524;28;20082;-88
2022/06/02 04:52:50;;;;;;;36.88;33.42;;;;;;;19.94;100.00;101116.28;5092780;28;20048;-88
2022/06/02 04:55:26;;;;;;;43.13;39.92;;;;;;;20.15;100.00;101120.75;5087576;28;20052;-87
2022/06/02 04:58:03;;;;;;;42.53;38.88;;;;;;;20.07;100.00;101121.25;5080967;28;20053;-87
2022/06/02 05:00:38;;;;;;;38.17;35.00;;;;;;;20.18;100.00;101125.63;5095515;28;20131;-87
2022/06/02 05:03:14;;;;;;;40.05;36.70;;;;;;;20.32;100.00;101131.38;5091999;28;20044;-87
2022/06/02 05:05:55;;;;;;;37.80;34.53;;;;;;;20.34;100.00;101119.25;5086273;28;20040;-87
2022/06/02 05:08:36;;;;;;;40.17;36.58;;;;;;;20.60;100.00;101127.50;5092471;28;20043;-88
2022/06/02 05:11:14;;;;;;;36.65;33.28;;;;;;;20.72;100.00;101128.09;5093667;28;20117;-87
2022/06/02 05:13:51;;;;;;;36.90;31.38;;;;;;;20.64;100.00;101120.53;5093239;28;20078;-87
2022/06/02 05:16:27;;;;;;;33.40;30.52;;;;;;;21.05;100.00;101124.16;5092931;28;20545;-88
2022/06/02 05:19:34;;;;;;;34.63;30.83;;;;;;;21.18;100.00;101120.16;5091443;28;20052;-88
2022/06/02 05:22:28;;;;;;;35.72;32.65;;;;;;;21.29;100.00;101120.97;5077684;28;20048;-87
2022/06/02 05:25:21;;;;;;;37.80;33.70;;;;;;;21.50;100.00;101125.34;5100639;28;20044;-88
2022/06/02 05:28:20;;;;;;;39.80;31.73;;;;;;;21.56;100.00;101128.06;5098773;28;20048;-87
2022/06/02 05:31:05;;;;;;;37.75;34.03;;;;;;;21.57;100.00;101116.97;5088044;28;20455;-87
2022/06/02 05:34:08;;;;;;;36.47;33.38;;;;;;;22.10;100.00;101124.81;5089835;28;20472;-87
2022/06/02 05:37:03;;;;;;;36.22;32.67;;;;;;;22.55;100.00;101114.97;5086805;28;20048;-87
2022/06/02 05:39:57;;;;;;;36.00;32.60;;;;;;;22.59;100.00;101118.75;5091854;28;20067;-86
2022/06/02 05:42:37;;;;;;;39.22;35.30;;;;;;;22.46;100.00;101120.16;5090139;28;20070;-87
2022/06/02 05:45:25;;;;;;;37.33;33.90;;;;;;;22.78;100.00;101125.16;5092899;28;20048;-88
2022/06/02 05:48:10;;;;;;;37.20;33.97;;;;;;;22.98;100.00;101126.19;5090426;28;20078;-88
2022/06/02 05:50:45;;;;;;;40.45;36.05;;;;;;;23.24;100.00;101119.53;5082874;28;20508;-88
2022/06/02 05:53:26;;;;;;;37.47;34.35;;;;;;;22.86;100.00;101132.69;5095041;28;20103;-87
2022/06/02 05:56:04;;;;;;;36.22;33.33;;;;;;;22.99;100.00;101117.75;5092146;28;20048;-87
2022/06/02 05:59:03;;;;;;;38.22;34.90;;;;;;;23.42;100.00;101123.47;5102264;28;20044;-89
2022/06/02 06:01:49;;;;;;;36.63;33.65;;;;;;;23.46;100.00;101126.44;5088570;28;20060;-88
2022/06/02 06:04:34;;;;;;;38.05;34.78;;;;;;;23.77;100.00;101127.81;5095565;28;20048;-88
2022/06/02 06:07:11;;;;;;;39.38;36.00;;;;;;;23.70;100.00;101124.66;5095351;28;20117;-88
2022/06/02 06:09:53;;;;;;;37.45;34.00;;;;;;;23.71;100.00;101126.25;5087084;28;20056;-88
2022/06/02 06:12:45;;;;;;;36.90;33.75;;;;;;;24.15;100.00;101119.09;5085497;28;20096;-88
2022/06/02 06:15:19;;;;;;;37.67;34.00;;;;;;;24.28;100.00;101114.88;5095658;28;20135;-90
2022/06/02 06:17:55;;;;;;;39.00;35.53;;;;;;;24.48;100.00;101113.84;5091679;28;20056;-87
2022/06/02 06:20:43;;;;;;;37.65;34.22;;;;;;;24.62;100.00;101117.47;5099273;28;20475;-87
2022/06/02 06:23:32;;;;;;;38.75;35.08;;;;;;;24.57;100.00;101107.50;5082115;28;20044;-88
2022/06/02 06:26:12;;;;;;;39.10;35.45;;;;;;;24.93;100.00;101115.16;5087307;28;20109;-86
2022/06/02 06:28:48;;;;;;;33.88;31.27;;;;;;;25.02;100.00;101110.69;5106249;28;20044;-87
2022/06/02 06:31:25;;;;;;;35.08;32.22;;;;;;;25.17;100.00;101112.41;5093226;28;20076;-88
2022/06/02 06:34:07;;;;;;;33.38;30.73;;;;;;;25.12;100.00;101116.00;5097708;28;20040;-88
2022/06/02 06:36:48;;;;;;;33.50;30.83;;;;;;;25.30;100.00;101108.97;5098755;28;20056;-88
2022/06/02 06:39:29;;;;;;;33.22;30.77;;;;;;;25.44;100.00;101105.50;5099181;28;20129;-88
2022/06/02 06:42:19;;;;;;;35.13;32.55;;;;;;;25.43;100.00;101115.56;5089491;28;20044;-87
2022/06/02 06:44:51;;;;;;;33.17;30.67;;;;;;;25.47;100.00;101119.28;5086271;28;20051;-87
2022/06/02 06:47:21;;;;;;;;;;;;;;;25.53;100.00;101107.22;5093685;28;20056;-87
2022/06/02 06:49:58;;;;;;;32.80;30.50;;;;;;;25.48;100.00;101103.81;5094237;28;20001;-88
2022/06/02 06:52:45;;;;;;;34.80;32.45;;;;;;;25.71;100.00;101108.28;5094024;28;20048;-88
2022/06/02 06:55:25;;;;;;;36.08;33.60;;;;;;;25.77;100.00;101106.31;5096379;28;20068;-88
2022/06/02 06:58:04;;;;;;;33.25;31.08;;;;;;;25.52;100.00;101111.06;5104473;28;20235;-88
2022/06/02 07:00:38;;;;;;;30.95;29.05;;;;;;;25.65;100.00;101103.25;5091404;28;20101;-89
2022/06/02 07:03:13;;;;;;;29.17;27.17;;;;;;;25.78;100.00;101100.56;5084656;28;20052;-88
2022/06/02 07:05:45;;;;;;;28.00;26.02;;;;;;;25.66;100.00;101096.69;5100150;28;20113;-87
2022/06/02 07:08:22;;;;;;;28.70;26.50;;;;;;;25.97;100.00;101103.25;5090357;28;20048;-87
2022/06/02 07:11:03;;;;;;;28.42;26.40;;;;;;;26.16;100.00;101099.66;5087470;28;20117;-87
2022/06/02 07:13:35;;;;;;;27.20;25.40;;;;;;;26.19;100.00;101108.00;5102232;28;20048;-86
2022/06/02 07:16:09;;;;;;;29.67;27.70;;;;;;;26.43;100.00;101105.09;5092651;28;20456;-87
2022/06/02 07:18:51;;;;;;;26.15;24.23;;;;;;;26.33;100.00;101107.22;5084843;28;20140;-87
2022/06/02 07:21:29;;;;;;;27.42;25.50;;;;;;;26.73;100.00;101103.69;5088656;28;20101;-89
2022/06/02 07:24:13;;;;;;;27.17;25.38;;;;;;;26.35;100.00;101097.63;5097446;28;20045;-90
2022/06/02 07:26:55;;;;;;;26.80;25.10;;;;;;;26.45;100.00;101110.25;5089641;28;20055;-87
2022/06/02 07:29:37;;;;;;;28.52;26.67;;;;;;;26.82;100.00;101105.69;5094323;28;20041;-87
2022/06/02 07:32:29;;;;;;;29.00;27.20;;;;;;;26.89;100.00;101106.06;5098425;28;20101;-89
2022/06/02 07:35:43;;;;;;;27.45;25.38;;;;;;;26.59;100.00;101116.50;5085462;28;20044;-88
2022/06/02 07:38:19;;;;;;;28.25;26.42;;;;;;;26.34;100.00;101117.81;5079694;28;20056;-87
2022/06/02 07:41:05;;;;;;;28.08;26.10;;;;;;;26.69;100.00;101126.41;5088826;28;20460;-88
2022/06/02 07:43:51;;;;;;;28.13;26.08;;;;;;;26.62;100.00;101117.81;5096265;28;20055;-89
2022/06/02 07:46:38;;;;;;;27.33;25.63;;;;;;;26.46;100.00;101115.38;5079920;28;20091;-88
2022/06/02 07:49:24;;;;;;;27.65;25.65;;;;;;;26.78;100.00;101110.94;5090534;28;20056;-87
2022/06/02 07:51:58;;;;;;;26.20;24.65;;;;;;;26.91;100.00;101114.75;5084467;28;20131;-88
2022/06/02 07:54:34;;;;;;;26.10;24.15;;;;;;;25.90;100.00;101118.34;5098001;28;20044;-87
2022/06/02 07:57:14;;;;;;;27.05;25.15;;;;;;;26.67;100.00;101117.72;5092900;28;20376;-88
2022/06/02 08:00:02;;;;;;;28.08;26.27;;;;;;;26.20;100.00;101111.53;5091933;28;20079;-87
2022/06/02 08:02:46;;;;;;;28.48;26.58;;;;;;;26.55;100.00;101122.88;5090957;28;20462;-88
2022/06/02 08:05:30;;;;;;;27.73;25.88;;;;;;;25.65;100.00;101116.84;5093992;28;20070;-87
2022/06/02 08:07:59;;;;;;;28.52;26.52;;;;;;;27.06;100.00;101114.41;5089876;28;20488;-88
2022/06/02 08:10:41;;;;;;;27.50;25.50;;;;;;;27.38;100.00;101118.88;5083882;28;20594;-88
2022/06/02 08:13:16;;;;;;;26.97;25.07;;;;;;;26.57;100.00;101107.84;5089712;28;20121;-86
2022/06/02 08:15:54;;;;;;;29.73;27.35;;;;;;;27.21;100.00;101115.22;5094978;28;20044;-87
2022/06/02 08:18:47;;;;;;;27.40;25.60;;;;;;;26.79;100.00;101111.75;5087579;28;20703;-87
2022/06/02 08:21:21;;;;;;;27.70;25.45;;;;;;;27.88;100.00;101108.94;5093309;28;20059;-88
2022/06/02 08:24:19;;;;;;;27.17;25.27;;;;;;;27.34;100.00;101112.41;5085222;28;20446;-88
2022/06/02 08:26:56;;;;;;;28.75;26.83;;;;;;;27.66;100.00;101116.00;5085798;28;20074;-86
2022/06/02 08:29:42;;;;;;;28.02;26.13;;;;;;;27.79;100.00;101109.69;5087383;28;20454;-88
2022/06/02 08:32:37;;;;;;;27.42;25.63;;;;;;;27.82;100.00;101109.06;5094400;28;20044;-87
2022/06/02 08:35:16;;;;;;;27.98;25.80;;;;;;;27.44;100.00;101116.81;5085844;28;20048;-88
2022/06/02 08:37:56;;;;;;;28.77;26.65;;;;;;;27.68;100.00;101121.16;5077060;28;20131;-90
2022/06/02 08:41:27;;;;;;;27.63;25.90;;;;;;;27.25;100.00;101111.53;5087674;28;20044;-88
2022/06/02 08:44:35;;;;;;;27.65;25.70;;;;;;;27.45;100.00;101126.63;5085665;28;20043;-89
2022/06/02 08:47:45;;;;;;;27.33;25.47;;;;;;;27.61;100.00;101119.66;5080800;28;20079;-87
2022/06/02 08:50:41;;;;;;;29.17;27.08;;;;;;;27.02;100.00;101115.31;5019256;28;20422;-89
2022/06/02 08:53:41;;;;;;;28.08;26.17;;;;;;;27.66;100.00;101123.38;5032805;28;20050;-87
2022/06/02 08:56:33;;;;;;;28.33;25.83;;;;;;;28.62;100.00;101116.47;5078196;28;20105;-89
2022/06/02 08:59:38;;;;;;;27.48;25.63;;;;;;;27.94;100.00;101133.06;5082446;28;20268;-88
2022/06/02 09:02:26;;;;;;;28.08;26.00;;;;;;;28.11;100.00;101126.06;5090614;28;20484;-87
2022/06/02 09:05:29;;;;;;;27.73;25.73;;;;;;;28.04;100.00;101127.31;5086322;28;20052;-89
2022/06/02 09:08:20;;;;;;;27.80;26.00;;;;;;;28.49;100.00;101121.75;5084672;28;20048;-89
2022/06/02 09:11:04;;;;;;;28.90;26.85;;;;;;;28.69;100.00;101128.56;5091369;28;20059;-87
2022/06/02 09:14:00;;;;;;;29.98;28.08;;;;;;;29.11;100.00;101123.50;5090392;28;20044;-87
2022/06/02 09:16:36;;;;;;;28.98;27.08;;;;;;;28.42;100.00;101128.81;5090657;28;20052;-88
2022/06/02 09:19:26;;;;;;;30.25;28.27;;;;;;;28.88;100.00;101127.47;5079172;28;20056;-87
2022/06/02 09:22:15;;;;;;;29.20;27.15;;;;;;;28.79;100.00;101126.63;5084885;28;20052;-87
2022/06/02 09:24:50;;;;;;;28.02;26.23;;;;;;;29.33;100.00;101122.50;5083093;28;20055;-88
2022/06/02 09:27:50;;;;;;;30.48;28.45;;;;;;;29.26;100.00;101122.22;5089576;28;20527;-87
2022/06/02 09:30:21;;;;;;;30.48;28.35;;;;;;;29.38;100.00;101130.56;5083331;28;20048;-88
2022/06/02 09:33:37;;;;;;;30.53;28.33;;;;;;;28.63;100.00;101118.91;5084911;28;20134;-88
2022/06/02 09:36:29;;;;;;;29.00;27.00;;;;;;;29.22;100.00;101107.56;5087533;28;20135;-87
2022/06/02 09:39:12;;;;;;;28.83;27.05;;;;;;;28.18;100.00;101120.97;5087919;28;20057;-87
2022/06/02 09:42:04;;;;;;;29.73;27.63;;;;;;;28.40;100.00;101120.88;5080008;28;20049;-87
2022/06/02 09:44:42;;;;;;;29.77;27.77;;;;;;;29.59;100.00;101124.41;5089335;28;20052;-82
2022/06/02 09:47:38;;;;;;;29.42;27.23;;;;;;;28.49;100.00;101113.53;5094980;28;20044;-85
2022/06/02 09:50:32;;;;;;;27.52;25.55;;;;;;;29.63;100.00;101111.72;5081389;28;20040;-86
2022/06/02 09:53:42;;;;;;;29.27;27.27;;;;;;;29.31;97.27;101107.53;5093796;28;20070;-85
2022/06/02 09:56:27;;;;;;;30.95;28.85;;;;;;;29.29;100.00;101112.53;5073959;28;20040;-87
2022/06/02 09:59:11;;;;;;;30.63;28.40;;;;;;;29.32;100.00;101109.97;5088135;28;20052;-81
2022/06/02 10:01:47;;;;;;;34.20;31.48;;;;;;;28.86;100.00;101105.09;5092861;28;20132;-84
2022/06/02 10:05:03;;;;;;;30.17;27.80;;;;;;;29.16;100.00;101101.44;5083950;28;20105;-85
2022/06/02 10:07:53;;;;;;;30.63;28.50;;;;;;;29.71;100.00;101099.13;5006464;28;20050;-83
2022/06/02 10:10:43;;;;;;;40.40;36.70;;;;;;;28.28;100.00;101096.09;5069934;28;20048;-84
2022/06/02 10:13:59;;;;;;;31.48;29.15;;;;;;;28.90;100.00;101098.69;5086099;28;20109;-83
2022/06/02 10:16:50;;;;;;;28.70;26.67;;;;;;;29.57;96.87;101096.59;5084350;28;20056;-84
2022/06/02 10:19:45;;;;;;;30.65;28.30;;;;;;;28.88;99.50;101090.00;5040918;28;20570;-84
2022/06/02 10:22:22;;;;;;;31.73;29.52;;;;;;;28.25;100.00;101103.00;5088553;28;20472;-83
2022/06/02 10:25:13;;;;;;;27.83;25.77;;;;;;;29.31;100.00;101100.13;5087129;28;20044;-83
2022/06/02 10:28:14;;;;;;;27.23;24.98;;;;;;;30.80;89.03;101091.09;5086188;28;20044;-85
2022/06/02 10:31:21;;;;;;;27.90;25.70;;;;;;;30.29;87.04;101101.22;5086657;28;20052;-84
2022/06/02 10:34:31;;;;;;;26.55;24.65;;;;;;;29.67;95.54;101091.56;5085307;28;20094;-83
2022/06/02 10:37:12;;;;;;;26.17;24.65;;;;;;;29.86;100.00;101087.66;5081459;28;20091;-84
2022/06/02 10:40:08;;;;;;;26.85;24.95;;;;;;;29.88;88.99;101088.16;5088716;28;20052;-83
2022/06/02 10:42:57;;;;;;;29.45;27.30;;;;;;;29.53;100.00;101090.94;5057320;28;20546;-83
2022/06/02 10:46:06;;;;;;;28.13;26.20;;;;;;;30.21;93.90;101091.09;5085652;28;20129;-85
2022/06/02 10:49:08;;;;;;;28.67;26.30;;;;;;;29.06;95.86;101077.16;5011838;28;20474;-83
2022/06/02 10:52:10;;;;;;;28.77;26.88;;;;;;;28.01;100.00;101075.28;5084589;28;20132;-81
2022/06/02 10:55:24;;;;;;;28.38;26.20;;;;;;;29.77;93.75;101068.53;5016118;28;20049;-83
2022/06/02 10:58:21;;;;;;;28.83;26.50;;;;;;;28.80;98.34;101071.66;5051843;28;20052;-82
2022/06/02 11:01:19;;;;;;;27.05;24.90;;;;;;;30.42;85.25;101069.22;5084577;28;20394;-85
2022/06/02 11:04:24;;;;;;;27.77;25.83;;;;;;;30.82;87.87;101065.28;5089695;28;20470;-85
2022/06/02 11:07:35;;;;;;;30.70;28.30;;;;;;;30.41;85.56;101056.66;5087080;28;20044;-84
2022/06/02 11:10:21;;;;;;;27.25;25.35;;;;;;;30.39;85.12;101047.19;5026465;28;20054;-83
2022/06/02 11:13:24;;;;;;;28.80;26.20;;;;;;;30.19;88.81;101041.28;5081450;28;20052;-81
2022/06/02 11:16:33;;;;;;;26.58;24.58;;;;;;;30.48;81.38;101045.19;5085322;28;20467;-84
2022/06/02 11:19:32;;;;;;;26.63;24.88;;;;;;;29.27;100.00;101040.94;5088746;28;20048;-84
2022/06/02 11:22:45;;;;;;;27.13;25.10;;;;;;;30.19;90.18;101038.53;5085635;28;20041;-85
2022/06/02 11:25:45;;;;;;;28.02;25.90;;;;;;;31.03;82.39;101035.91;5080537;28;20466;-85
2022/06/02 11:28:44;;;;;;;25.75;24.08;;;;;;;30.51;87.95;101033.56;5087647;28;20040;-83
2022/06/02 11:31:39;;;;;;;25.95;24.10;;;;;;;30.01;83.55;101035.09;5090874;28;20125;-86
2022/06/02 11:34:33;;;;;;;26.20;24.40;;;;;;;30.92;72.89;101037.44;5087310;28;20370;-83
2022/06/02 11:37:25;;;;;;;26.30;24.50;;;;;;;30.26;79.05;101033.38;5073244;28;20045;-84
2022/06/02 11:40:09;;;;;;;;;;;;;;;30.92;72.94;101040.97;5083363;28;20117;-84
2022/06/02 11:42:56;;;;;;;25.35;23.35;;;;;;;29.71;86.55;101034.25;5087168;28;19989;-83
2022/06/02 11:45:50;;;;;;;25.38;23.77;;;;;;;30.21;76.20;101030.84;5087576;28;20052;-84
2022/06/02 11:48:35;;;;;;;26.58;24.88;;;;;;;30.73;71.71;101022.25;5092886;28;20117;-84
2022/06/02 11:51:39;;;;;;;29.48;26.88;;;;;;;29.27;88.18;101027.28;5086715;28;20051;-83
2022/06/02 11:54:30;;;;;;;27.85;25.88;;;;;;;30.60;80.38;101031.53;5049695;28;20054;-84
2022/06/02 11:57:17;;;;;;;28.60;26.40;;;;;;;31.23;70.26;101026.03;5087590;28;20458;-83
2022/06/02 12:00:13;;;;;;;27.58;25.88;;;;;;;30.37;78.68;101019.28;5082449;28;20053;-83
2022/06/02 12:03:06;;;;;;;30.52;28.40;;;;;;;29.24;77.73;101009.59;5053041;28;20064;-85
2022/06/02 12:06:13;;;;;;;32.75;30.65;;;;;;;28.80;93.89;101007.97;5084678;28;20500;-84
2022/06/02 12:09:15;;;;;;;30.20;28.20;;;;;;;30.63;72.16;101002.69;5090514;28;20051;-83
2022/06/02 12:12:02;;;;;;;30.65;28.55;;;;;;;31.22;64.69;100994.22;5050400;28;20142;-83
2022/06/02 12:14:53;;;;;;;32.13;29.92;;;;;;;30.93;69.23;100993.25;5092160;28;20115;-83
2022/06/02 12:17:34;;;;;;;30.77;28.88;;;;;;;30.35;70.87;100997.72;5083691;28;20040;-83
2022/06/02 12:20:34;;;;;;;32.28;30.05;;;;;;;31.48;57.22;100994.78;5085499;28;20464;-83
2022/06/02 12:23:14;;;;;;;29.45;27.48;;;;;;;30.68;69.47;100986.00;5023735;28;20044;-83
2022/06/02 12:26:00;;;;;;;29.60;27.55;;;;;;;29.38;82.26;100990.22;5085991;28;20143;-83
2022/06/02 12:28:45;;;;;;;30.27;28.17;;;;;;;31.28;69.74;100987.38;5081724;28;20487;-84
2022/06/02 12:31:53;;;;;;;29.08;27.10;;;;;;;31.48;63.76;100980.25;5092321;28;20101;-84